sensor_id;sensor_type;location;lat;lon;timestamp;temperature;humidity
32502;DHT22;18952;52.516;13.460;2024-01-06T00:01:23;3.20;73.90
32502;DHT22;18952;52.516;13.460;2024-01-06T00:03:50;3.20;73.70
32502;DHT22;18952;52.516;13.460;2024-01-06T00:06:18;3.20;73.70
32502;DHT22;18952;52.516;13.460;2024-01-06T00:08:47;3.10;73.30
32502;DHT22;18952;52.516;13.460;2024-01-06T00:11:14;3.00;73.70
32502;DHT22;18952;52.516;13.460;2024-01-06T00:13:43;3.10;73.80
32502;DHT22;18952;52.516;13.460;2024-01-06T00:16:10;3.00;74.00
32502;DHT22;18952;52.516;13.460;2024-01-06T00:18:39;3.00;73.70
32502;DHT22;18952;52.516;13.460;2024-01-06T00:21:08;3.10;73.60
32502;DHT22;18952;52.516;13.460;2024-01-06T00:23:36;3.10;73.60
32502;DHT22;18952;52.516;13.460;2024-01-06T00:26:04;3.10;73.70
32502;DHT22;18952;52.516;13.460;2024-01-06T00:28:38;3.00;73.60
32502;DHT22;18952;52.516;13.460;2024-01-06T00:31:06;2.90;73.60
32502;DHT22;18952;52.516;13.460;2024-01-06T00:33:33;3.00;74.10
32502;DHT22;18952;52.516;13.460;2024-01-06T00:36:02;3.10;73.90
32502;DHT22;18952;52.516;13.460;2024-01-06T00:38:34;3.00;73.50
32502;DHT22;18952;52.516;13.460;2024-01-06T00:41:04;2.90;73.70
32502;DHT22;18952;52.516;13.460;2024-01-06T00:43:32;3.00;73.80
32502;DHT22;18952;52.516;13.460;2024-01-06T00:46:02;3.00;73.50
32502;DHT22;18952;52.516;13.460;2024-01-06T00:48:30;3.00;73.60
32502;DHT22;18952;52.516;13.460;2024-01-06T00:51:03;3.00;73.30
32502;DHT22;18952;52.516;13.460;2024-01-06T00:53:32;3.10;73.30
32502;DHT22;18952;52.516;13.460;2024-01-06T00:55:58;3.10;73.30
32502;DHT22;18952;52.516;13.460;2024-01-06T00:58:34;3.10;73.40
32502;DHT22;18952;52.516;13.460;2024-01-06T01:01:09;3.10;73.30
32502;DHT22;18952;52.516;13.460;2024-01-06T01:03:37;3.10;73.30
32502;DHT22;18952;52.516;13.460;2024-01-06T01:06:04;3.10;73.00
32502;DHT22;18952;52.516;13.460;2024-01-06T01:08:32;3.10;72.90
32502;DHT22;18952;52.516;13.460;2024-01-06T01:11:00;3.20;72.80
32502;DHT22;18952;52.516;13.460;2024-01-06T01:13:28;3.10;72.90
32502;DHT22;18952;52.516;13.460;2024-01-06T01:15:56;3.00;73.20
32502;DHT22;18952;52.516;13.460;2024-01-06T01:18:25;3.00;72.90
32502;DHT22;18952;52.516;13.460;2024-01-06T01:20:53;3.00;72.80
32502;DHT22;18952;52.516;13.460;2024-01-06T01:23:20;3.10;72.80
32502;DHT22;18952;52.516;13.460;2024-01-06T01:25:48;3.10;72.80
32502;DHT22;18952;52.516;13.460;2024-01-06T01:28:16;3.00;72.80
32502;DHT22;18952;52.516;13.460;2024-01-06T01:30:46;3.00;72.90
32502;DHT22;18952;52.516;13.460;2024-01-06T01:33:13;2.90;73.60
32502;DHT22;18952;52.516;13.460;2024-01-06T01:35:40;3.00;73.30
32502;DHT22;18952;52.516;13.460;2024-01-06T01:38:07;3.00;73.20
32502;DHT22;18952;52.516;13.460;2024-01-06T01:40:34;3.00;73.00
32502;DHT22;18952;52.516;13.460;2024-01-06T01:43:01;3.00;73.30
32502;DHT22;18952;52.516;13.460;2024-01-06T01:45:27;2.90;72.80
32502;DHT22;18952;52.516;13.460;2024-01-06T01:47:54;2.80;73.30
32502;DHT22;18952;52.516;13.460;2024-01-06T01:50:21;2.90;73.60
32502;DHT22;18952;52.516;13.460;2024-01-06T01:52:48;2.90;73.20
32502;DHT22;18952;52.516;13.460;2024-01-06T01:55:15;2.90;73.20
32502;DHT22;18952;52.516;13.460;2024-01-06T01:57:43;3.00;73.10
32502;DHT22;18952;52.516;13.460;2024-01-06T02:00:10;2.90;73.10
32502;DHT22;18952;52.516;13.460;2024-01-06T02:02:37;3.00;72.80
32502;DHT22;18952;52.516;13.460;2024-01-06T02:05:04;2.90;72.80
32502;DHT22;18952;52.516;13.460;2024-01-06T02:07:31;2.80;73.00
32502;DHT22;18952;52.516;13.460;2024-01-06T02:09:58;2.80;73.40
32502;DHT22;18952;52.516;13.460;2024-01-06T02:12:25;2.80;73.00
32502;DHT22;18952;52.516;13.460;2024-01-06T02:14:52;2.70;73.70
32502;DHT22;18952;52.516;13.460;2024-01-06T02:17:31;2.80;73.10
32502;DHT22;18952;52.516;13.460;2024-01-06T02:19:58;2.90;73.00
32502;DHT22;18952;52.516;13.460;2024-01-06T02:22:24;2.80;73.00
32502;DHT22;18952;52.516;13.460;2024-01-06T02:24:51;2.90;73.10
32502;DHT22;18952;52.516;13.460;2024-01-06T02:27:18;2.80;73.00
32502;DHT22;18952;52.516;13.460;2024-01-06T02:29:45;2.80;73.00
32502;DHT22;18952;52.516;13.460;2024-01-06T02:32:11;2.80;73.30
32502;DHT22;18952;52.516;13.460;2024-01-06T02:34:38;2.80;73.20
32502;DHT22;18952;52.516;13.460;2024-01-06T02:37:06;2.90;72.90
32502;DHT22;18952;52.516;13.460;2024-01-06T02:39:33;2.90;72.60
32502;DHT22;18952;52.516;13.460;2024-01-06T02:42:00;2.90;72.60
32502;DHT22;18952;52.516;13.460;2024-01-06T02:44:27;3.00;72.60
32502;DHT22;18952;52.516;13.460;2024-01-06T02:46:56;2.90;72.30
32502;DHT22;18952;52.516;13.460;2024-01-06T02:49:23;2.90;72.70
32502;DHT22;18952;52.516;13.460;2024-01-06T02:51:50;3.00;72.50
32502;DHT22;18952;52.516;13.460;2024-01-06T02:54:17;2.90;72.70
32502;DHT22;18952;52.516;13.460;2024-01-06T02:56:44;2.80;72.50
32502;DHT22;18952;52.516;13.460;2024-01-06T02:59:10;2.90;72.90
32502;DHT22;18952;52.516;13.460;2024-01-06T03:01:37;2.90;72.30
32502;DHT22;18952;52.516;13.460;2024-01-06T03:04:04;2.80;72.50
32502;DHT22;18952;52.516;13.460;2024-01-06T03:06:31;2.90;72.40
32502;DHT22;18952;52.516;13.460;2024-01-06T03:08:58;3.00;72.50
32502;DHT22;18952;52.516;13.460;2024-01-06T03:11:24;3.00;72.30
32502;DHT22;18952;52.516;13.460;2024-01-06T03:13:51;2.80;72.30
32502;DHT22;18952;52.516;13.460;2024-01-06T03:16:18;2.90;72.50
32502;DHT22;18952;52.516;13.460;2024-01-06T03:18:45;2.90;72.40
32502;DHT22;18952;52.516;13.460;2024-01-06T03:21:21;2.90;72.40
32502;DHT22;18952;52.516;13.460;2024-01-06T03:23:48;2.90;72.20
32502;DHT22;18952;52.516;13.460;2024-01-06T03:26:17;2.90;72.20
32502;DHT22;18952;52.516;13.460;2024-01-06T03:28:44;3.00;72.10
32502;DHT22;18952;52.516;13.460;2024-01-06T03:31:10;2.90;72.40
32502;DHT22;18952;52.516;13.460;2024-01-06T03:33:37;2.90;72.00
32502;DHT22;18952;52.516;13.460;2024-01-06T03:36:07;2.80;72.40
32502;DHT22;18952;52.516;13.460;2024-01-06T03:38:34;2.80;72.70
32502;DHT22;18952;52.516;13.460;2024-01-06T03:41:01;2.80;72.80
32502;DHT22;18952;52.516;13.460;2024-01-06T03:43:28;2.80;72.50
32502;DHT22;18952;52.516;13.460;2024-01-06T03:45:54;2.80;72.40
32502;DHT22;18952;52.516;13.460;2024-01-06T03:48:21;2.80;72.50
32502;DHT22;18952;52.516;13.460;2024-01-06T03:50:48;2.80;72.70
32502;DHT22;18952;52.516;13.460;2024-01-06T03:53:15;2.80;72.60
32502;DHT22;18952;52.516;13.460;2024-01-06T03:55:41;2.80;72.70
32502;DHT22;18952;52.516;13.460;2024-01-06T03:58:08;2.70;73.00
32502;DHT22;18952;52.516;13.460;2024-01-06T04:00:35;2.70;72.80
32502;DHT22;18952;52.516;13.460;2024-01-06T04:03:02;2.70;72.80
32502;DHT22;18952;52.516;13.460;2024-01-06T04:05:28;2.70;72.70
32502;DHT22;18952;52.516;13.460;2024-01-06T04:07:55;2.70;73.10
32502;DHT22;18952;52.516;13.460;2024-01-06T04:10:22;2.80;73.10
32502;DHT22;18952;52.516;13.460;2024-01-06T04:12:48;2.80;72.80
32502;DHT22;18952;52.516;13.460;2024-01-06T04:15:15;2.90;72.60
32502;DHT22;18952;52.516;13.460;2024-01-06T04:17:42;2.90;72.60
32502;DHT22;18952;52.516;13.460;2024-01-06T04:20:10;2.90;72.30
32502;DHT22;18952;52.516;13.460;2024-01-06T04:22:36;2.80;72.80
32502;DHT22;18952;52.516;13.460;2024-01-06T04:25:03;2.80;72.70
32502;DHT22;18952;52.516;13.460;2024-01-06T04:30:39;2.70;73.00
32502;DHT22;18952;52.516;13.460;2024-01-06T04:33:06;2.80;73.10
32502;DHT22;18952;52.516;13.460;2024-01-06T04:35:33;2.70;73.10
32502;DHT22;18952;52.516;13.460;2024-01-06T04:38:00;2.70;72.90
32502;DHT22;18952;52.516;13.460;2024-01-06T04:40:26;2.70;73.10
32502;DHT22;18952;52.516;13.460;2024-01-06T04:42:53;2.60;73.40
32502;DHT22;18952;52.516;13.460;2024-01-06T04:45:20;2.70;73.40
32502;DHT22;18952;52.516;13.460;2024-01-06T04:47:47;2.80;73.00
32502;DHT22;18952;52.516;13.460;2024-01-06T04:50:14;2.70;72.70
32502;DHT22;18952;52.516;13.460;2024-01-06T04:52:41;2.60;73.20
32502;DHT22;18952;52.516;13.460;2024-01-06T04:55:08;2.70;73.40
32502;DHT22;18952;52.516;13.460;2024-01-06T04:57:35;2.70;73.50
32502;DHT22;18952;52.516;13.460;2024-01-06T05:00:03;2.80;73.10
32502;DHT22;18952;52.516;13.460;2024-01-06T05:02:30;2.80;73.30
32502;DHT22;18952;52.516;13.460;2024-01-06T05:04:57;2.80;73.10
32502;DHT22;18952;52.516;13.460;2024-01-06T05:07:23;2.80;73.00
32502;DHT22;18952;52.516;13.460;2024-01-06T05:09:50;2.90;73.00
32502;DHT22;18952;52.516;13.460;2024-01-06T05:12:17;2.80;73.00
32502;DHT22;18952;52.516;13.460;2024-01-06T05:14:44;2.80;72.80
32502;DHT22;18952;52.516;13.460;2024-01-06T05:17:11;2.90;72.60
32502;DHT22;18952;52.516;13.460;2024-01-06T05:19:38;2.90;73.00
32502;DHT22;18952;52.516;13.460;2024-01-06T05:22:05;2.80;72.90
32502;DHT22;18952;52.516;13.460;2024-01-06T05:24:31;2.80;73.00
32502;DHT22;18952;52.516;13.460;2024-01-06T05:26:58;2.80;72.70
32502;DHT22;18952;52.516;13.460;2024-01-06T05:29:25;2.80;73.10
32502;DHT22;18952;52.516;13.460;2024-01-06T05:31:52;2.80;72.70
32502;DHT22;18952;52.516;13.460;2024-01-06T05:34:19;2.60;73.20
32502;DHT22;18952;52.516;13.460;2024-01-06T05:36:46;2.60;73.50
32502;DHT22;18952;52.516;13.460;2024-01-06T05:39:13;2.50;73.80
32502;DHT22;18952;52.516;13.460;2024-01-06T05:41:40;2.40;74.10
32502;DHT22;18952;52.516;13.460;2024-01-06T05:44:07;2.60;73.90
32502;DHT22;18952;52.516;13.460;2024-01-06T05:46:34;2.60;73.70
32502;DHT22;18952;52.516;13.460;2024-01-06T05:49:01;2.70;73.30
32502;DHT22;18952;52.516;13.460;2024-01-06T05:51:28;2.70;73.10
32502;DHT22;18952;52.516;13.460;2024-01-06T05:53:55;2.50;73.40
32502;DHT22;18952;52.516;13.460;2024-01-06T05:56:23;2.60;73.40
32502;DHT22;18952;52.516;13.460;2024-01-06T05:58:50;2.70;73.10
32502;DHT22;18952;52.516;13.460;2024-01-06T06:01:17;2.60;73.20
32502;DHT22;18952;52.516;13.460;2024-01-06T06:03:48;2.70;73.60
32502;DHT22;18952;52.516;13.460;2024-01-06T06:06:15;2.70;73.30
32502;DHT22;18952;52.516;13.460;2024-01-06T06:08:43;2.50;73.90
32502;DHT22;18952;52.516;13.460;2024-01-06T06:11:10;2.60;73.50
32502;DHT22;18952;52.516;13.460;2024-01-06T06:13:40;2.50;73.90
32502;DHT22;18952;52.516;13.460;2024-01-06T06:16:09;2.50;74.00
32502;DHT22;18952;52.516;13.460;2024-01-06T06:18:36;2.50;74.00
32502;DHT22;18952;52.516;13.460;2024-01-06T06:21:04;2.60;73.40
32502;DHT22;18952;52.516;13.460;2024-01-06T06:23:31;2.50;73.50
32502;DHT22;18952;52.516;13.460;2024-01-06T06:25:58;2.50;73.60
32502;DHT22;18952;52.516;13.460;2024-01-06T06:28:25;2.50;73.50
32502;DHT22;18952;52.516;13.460;2024-01-06T06:30:52;2.50;73.60
32502;DHT22;18952;52.516;13.460;2024-01-06T06:33:19;2.50;73.60
32502;DHT22;18952;52.516;13.460;2024-01-06T06:35:46;2.50;73.50
32502;DHT22;18952;52.516;13.460;2024-01-06T06:38:12;2.50;73.00
32502;DHT22;18952;52.516;13.460;2024-01-06T06:40:39;2.40;73.50
32502;DHT22;18952;52.516;13.460;2024-01-06T06:43:06;2.50;73.40
32502;DHT22;18952;52.516;13.460;2024-01-06T06:45:33;2.50;73.40
32502;DHT22;18952;52.516;13.460;2024-01-06T06:48:00;2.40;73.40
32502;DHT22;18952;52.516;13.460;2024-01-06T06:50:27;2.40;73.20
32502;DHT22;18952;52.516;13.460;2024-01-06T06:52:53;2.40;73.70
32502;DHT22;18952;52.516;13.460;2024-01-06T06:55:20;2.40;73.70
32502;DHT22;18952;52.516;13.460;2024-01-06T06:57:47;2.40;73.50
32502;DHT22;18952;52.516;13.460;2024-01-06T07:00:14;2.40;73.50
32502;DHT22;18952;52.516;13.460;2024-01-06T07:02:41;2.40;73.60
32502;DHT22;18952;52.516;13.460;2024-01-06T07:05:08;2.40;73.50
32502;DHT22;18952;52.516;13.460;2024-01-06T07:07:37;2.40;73.80
32502;DHT22;18952;52.516;13.460;2024-01-06T07:10:07;2.40;73.60
32502;DHT22;18952;52.516;13.460;2024-01-06T07:12:34;2.40;74.00
32502;DHT22;18952;52.516;13.460;2024-01-06T07:15:01;2.30;74.10
32502;DHT22;18952;52.516;13.460;2024-01-06T07:17:31;2.40;73.70
32502;DHT22;18952;52.516;13.460;2024-01-06T07:19:58;2.40;74.00
32502;DHT22;18952;52.516;13.460;2024-01-06T07:22:24;2.40;73.60
32502;DHT22;18952;52.516;13.460;2024-01-06T07:24:51;2.40;73.60
32502;DHT22;18952;52.516;13.460;2024-01-06T07:27:18;2.40;74.00
32502;DHT22;18952;52.516;13.460;2024-01-06T07:29:45;2.30;73.40
32502;DHT22;18952;52.516;13.460;2024-01-06T07:32:12;2.30;74.00
32502;DHT22;18952;52.516;13.460;2024-01-06T07:34:39;2.20;73.80
32502;DHT22;18952;52.516;13.460;2024-01-06T07:37:06;2.30;74.00
32502;DHT22;18952;52.516;13.460;2024-01-06T07:39:33;2.30;74.20
32502;DHT22;18952;52.516;13.460;2024-01-06T07:41:59;2.30;73.80
32502;DHT22;18952;52.516;13.460;2024-01-06T07:44:26;2.30;74.00
32502;DHT22;18952;52.516;13.460;2024-01-06T07:46:53;2.20;74.20
32502;DHT22;18952;52.516;13.460;2024-01-06T07:49:20;2.30;74.00
32502;DHT22;18952;52.516;13.460;2024-01-06T07:51:47;2.20;74.10
32502;DHT22;18952;52.516;13.460;2024-01-06T07:54:14;2.30;74.10
32502;DHT22;18952;52.516;13.460;2024-01-06T07:56:41;2.30;74.00
32502;DHT22;18952;52.516;13.460;2024-01-06T07:59:09;2.30;73.60
32502;DHT22;18952;52.516;13.460;2024-01-06T08:01:36;2.40;73.80
32502;DHT22;18952;52.516;13.460;2024-01-06T08:04:03;2.40;73.30
32502;DHT22;18952;52.516;13.460;2024-01-06T08:06:30;2.50;73.20
32502;DHT22;18952;52.516;13.460;2024-01-06T08:08:57;2.50;72.90
32502;DHT22;18952;52.516;13.460;2024-01-06T08:11:23;2.30;72.50
32502;DHT22;18952;52.516;13.460;2024-01-06T08:13:50;2.40;72.90
32502;DHT22;18952;52.516;13.460;2024-01-06T08:16:18;2.40;72.90
32502;DHT22;18952;52.516;13.460;2024-01-06T08:18:45;2.20;73.50
32502;DHT22;18952;52.516;13.460;2024-01-06T08:21:12;2.20;73.30
32502;DHT22;18952;52.516;13.460;2024-01-06T08:23:39;2.20;73.20
32502;DHT22;18952;52.516;13.460;2024-01-06T08:26:06;2.20;73.20
32502;DHT22;18952;52.516;13.460;2024-01-06T08:28:37;2.30;73.00
32502;DHT22;18952;52.516;13.460;2024-01-06T08:31:04;2.20;72.80
32502;DHT22;18952;52.516;13.460;2024-01-06T08:33:31;2.30;73.00
32502;DHT22;18952;52.516;13.460;2024-01-06T08:35:58;2.30;72.60
32502;DHT22;18952;52.516;13.460;2024-01-06T08:38:25;2.30;72.60
32502;DHT22;18952;52.516;13.460;2024-01-06T08:40:52;2.30;72.60
32502;DHT22;18952;52.516;13.460;2024-01-06T08:43:18;2.30;72.40
32502;DHT22;18952;52.516;13.460;2024-01-06T08:45:45;2.30;72.30
32502;DHT22;18952;52.516;13.460;2024-01-06T08:48:12;2.30;72.70
32502;DHT22;18952;52.516;13.460;2024-01-06T08:50:39;2.40;72.30
32502;DHT22;18952;52.516;13.460;2024-01-06T08:53:06;2.40;71.90
32502;DHT22;18952;52.516;13.460;2024-01-06T08:55:36;2.30;71.70
32502;DHT22;18952;52.516;13.460;2024-01-06T08:58:03;2.30;72.20
32502;DHT22;18952;52.516;13.460;2024-01-06T09:00:30;2.30;71.80
32502;DHT22;18952;52.516;13.460;2024-01-06T09:02:57;2.30;72.10
32502;DHT22;18952;52.516;13.460;2024-01-06T09:05:23;2.30;72.20
32502;DHT22;18952;52.516;13.460;2024-01-06T09:07:50;2.30;71.90
32502;DHT22;18952;52.516;13.460;2024-01-06T09:10:20;2.20;72.30
32502;DHT22;18952;52.516;13.460;2024-01-06T09:12:47;2.40;72.10
32502;DHT22;18952;52.516;13.460;2024-01-06T09:15:14;2.40;71.30
32502;DHT22;18952;52.516;13.460;2024-01-06T09:17:41;2.20;71.70
32502;DHT22;18952;52.516;13.460;2024-01-06T09:20:08;2.30;71.90
32502;DHT22;18952;52.516;13.460;2024-01-06T09:22:35;2.50;71.50
32502;DHT22;18952;52.516;13.460;2024-01-06T09:25:02;2.40;71.50
32502;DHT22;18952;52.516;13.460;2024-01-06T09:27:29;2.30;71.40
32502;DHT22;18952;52.516;13.460;2024-01-06T09:29:56;2.30;71.50
32502;DHT22;18952;52.516;13.460;2024-01-06T09:32:23;2.30;71.60
32502;DHT22;18952;52.516;13.460;2024-01-06T09:34:50;2.40;71.00
32502;DHT22;18952;52.516;13.460;2024-01-06T09:37:17;2.40;70.80
32502;DHT22;18952;52.516;13.460;2024-01-06T09:39:44;2.30;70.90
32502;DHT22;18952;52.516;13.460;2024-01-06T09:42:11;2.40;70.90
32502;DHT22;18952;52.516;13.460;2024-01-06T09:44:38;2.40;70.60
32502;DHT22;18952;52.516;13.460;2024-01-06T09:47:06;2.40;70.30
32502;DHT22;18952;52.516;13.460;2024-01-06T09:49:34;2.30;71.00
32502;DHT22;18952;52.516;13.460;2024-01-06T09:52:13;2.30;71.10
32502;DHT22;18952;52.516;13.460;2024-01-06T09:54:46;2.30;71.00
32502;DHT22;18952;52.516;13.460;2024-01-06T09:57:16;2.40;70.70
32502;DHT22;18952;52.516;13.460;2024-01-06T09:59:47;2.40;70.40
32502;DHT22;18952;52.516;13.460;2024-01-06T10:02:15;2.30;70.50
32502;DHT22;18952;52.516;13.460;2024-01-06T10:04:45;2.20;70.80
32502;DHT22;18952;52.516;13.460;2024-01-06T10:07:12;2.20;70.60
32502;DHT22;18952;52.516;13.460;2024-01-06T10:09:42;2.30;70.60
32502;DHT22;18952;52.516;13.460;2024-01-06T10:12:09;2.30;70.00
32502;DHT22;18952;52.516;13.460;2024-01-06T10:14:37;2.30;70.00
32502;DHT22;18952;52.516;13.460;2024-01-06T10:17:06;2.30;69.70
32502;DHT22;18952;52.516;13.460;2024-01-06T10:19:34;2.30;70.00
32502;DHT22;18952;52.516;13.460;2024-01-06T10:22:02;2.30;70.00
32502;DHT22;18952;52.516;13.460;2024-01-06T10:24:29;2.20;70.40
32502;DHT22;18952;52.516;13.460;2024-01-06T10:26:56;2.30;70.10
32502;DHT22;18952;52.516;13.460;2024-01-06T10:29:26;2.40;70.50
32502;DHT22;18952;52.516;13.460;2024-01-06T10:31:55;2.40;70.60
32502;DHT22;18952;52.516;13.460;2024-01-06T10:34:24;2.40;70.70
32502;DHT22;18952;52.516;13.460;2024-01-06T10:36:53;2.40;70.30
32502;DHT22;18952;52.516;13.460;2024-01-06T10:39:20;2.40;69.70
32502;DHT22;18952;52.516;13.460;2024-01-06T10:41:51;2.50;69.50
32502;DHT22;18952;52.516;13.460;2024-01-06T10:44:19;2.40;69.30
32502;DHT22;18952;52.516;13.460;2024-01-06T10:46:48;2.50;69.30
32502;DHT22;18952;52.516;13.460;2024-01-06T10:49:17;2.40;69.00
32502;DHT22;18952;52.516;13.460;2024-01-06T10:51:48;2.30;69.30
32502;DHT22;18952;52.516;13.460;2024-01-06T10:54:15;2.40;68.90
32502;DHT22;18952;52.516;13.460;2024-01-06T10:56:46;2.30;69.30
32502;DHT22;18952;52.516;13.460;2024-01-06T10:59:15;2.40;68.80
32502;DHT22;18952;52.516;13.460;2024-01-06T11:01:44;2.30;69.10
32502;DHT22;18952;52.516;13.460;2024-01-06T11:04:15;2.30;69.00
32502;DHT22;18952;52.516;13.460;2024-01-06T11:06:45;2.30;69.10
32502;DHT22;18952;52.516;13.460;2024-01-06T11:09:35;2.40;69.10
32502;DHT22;18952;52.516;13.460;2024-01-06T11:12:05;2.40;68.90
32502;DHT22;18952;52.516;13.460;2024-01-06T11:14:37;2.30;69.10
32502;DHT22;18952;52.516;13.460;2024-01-06T11:17:06;2.40;69.00
32502;DHT22;18952;52.516;13.460;2024-01-06T11:22:21;2.40;68.80
32502;DHT22;18952;52.516;13.460;2024-01-06T11:24:54;2.30;68.90
32502;DHT22;18952;52.516;13.460;2024-01-06T11:27:30;2.40;68.80
32502;DHT22;18952;52.516;13.460;2024-01-06T11:30:01;2.40;68.80
32502;DHT22;18952;52.516;13.460;2024-01-06T11:32:39;2.30;68.60
32502;DHT22;18952;52.516;13.460;2024-01-06T11:35:14;2.30;69.00
32502;DHT22;18952;52.516;13.460;2024-01-06T11:45:25;2.30;68.20
32502;DHT22;18952;52.516;13.460;2024-01-06T11:48:00;2.40;68.40
32502;DHT22;18952;52.516;13.460;2024-01-06T11:50:28;2.40;68.00
32502;DHT22;18952;52.516;13.460;2024-01-06T11:52:55;2.40;68.10
32502;DHT22;18952;52.516;13.460;2024-01-06T11:55:22;2.30;67.60
32502;DHT22;18952;52.516;13.460;2024-01-06T11:57:50;2.30;68.30
32502;DHT22;18952;52.516;13.460;2024-01-06T12:00:18;2.40;67.80
32502;DHT22;18952;52.516;13.460;2024-01-06T12:02:45;2.30;68.20
32502;DHT22;18952;52.516;13.460;2024-01-06T12:05:15;2.30;68.40
32502;DHT22;18952;52.516;13.460;2024-01-06T12:07:54;2.10;68.60
32502;DHT22;18952;52.516;13.460;2024-01-06T12:10:22;2.10;69.00
32502;DHT22;18952;52.516;13.460;2024-01-06T12:13:05;2.20;68.50
32502;DHT22;18952;52.516;13.460;2024-01-06T12:15:39;2.20;68.60
32502;DHT22;18952;52.516;13.460;2024-01-06T12:18:07;2.10;68.40
32502;DHT22;18952;52.516;13.460;2024-01-06T12:20:36;2.00;68.60
32502;DHT22;18952;52.516;13.460;2024-01-06T12:23:04;2.20;68.20
32502;DHT22;18952;52.516;13.460;2024-01-06T12:25:31;2.30;68.00
32502;DHT22;18952;52.516;13.460;2024-01-06T12:28:01;2.30;67.80
32502;DHT22;18952;52.516;13.460;2024-01-06T12:30:28;2.20;68.10
32502;DHT22;18952;52.516;13.460;2024-01-06T12:32:59;2.30;68.10
32502;DHT22;18952;52.516;13.460;2024-01-06T12:35:26;2.30;67.70
32502;DHT22;18952;52.516;13.460;2024-01-06T12:37:55;2.20;67.90
32502;DHT22;18952;52.516;13.460;2024-01-06T12:40:23;2.10;67.90
32502;DHT22;18952;52.516;13.460;2024-01-06T12:42:50;2.20;67.90
32502;DHT22;18952;52.516;13.460;2024-01-06T12:45:17;2.20;67.80
32502;DHT22;18952;52.516;13.460;2024-01-06T12:47:46;2.10;67.70
32502;DHT22;18952;52.516;13.460;2024-01-06T12:50:13;2.00;68.20
32502;DHT22;18952;52.516;13.460;2024-01-06T12:52:40;2.10;68.20
32502;DHT22;18952;52.516;13.460;2024-01-06T12:55:10;2.20;67.80
32502;DHT22;18952;52.516;13.460;2024-01-06T12:57:43;2.20;67.70
32502;DHT22;18952;52.516;13.460;2024-01-06T13:00:10;2.10;67.60
32502;DHT22;18952;52.516;13.460;2024-01-06T13:02:38;2.00;67.70
32502;DHT22;18952;52.516;13.460;2024-01-06T13:05:07;2.00;68.20
32502;DHT22;18952;52.516;13.460;2024-01-06T13:07:36;2.00;67.90
32502;DHT22;18952;52.516;13.460;2024-01-06T13:10:03;2.00;67.90
32502;DHT22;18952;52.516;13.460;2024-01-06T13:12:34;2.00;68.20
32502;DHT22;18952;52.516;13.460;2024-01-06T13:15:01;2.00;68.00
32502;DHT22;18952;52.516;13.460;2024-01-06T13:17:28;2.00;68.10
32502;DHT22;18952;52.516;13.460;2024-01-06T13:20:04;2.20;68.20
32502;DHT22;18952;52.516;13.460;2024-01-06T13:22:35;2.20;67.60
32502;DHT22;18952;52.516;13.460;2024-01-06T13:25:04;2.10;67.90
32502;DHT22;18952;52.516;13.460;2024-01-06T13:27:33;2.10;67.70
32502;DHT22;18952;52.516;13.460;2024-01-06T13:30:00;2.10;67.70
32502;DHT22;18952;52.516;13.460;2024-01-06T13:32:27;2.00;68.00
32502;DHT22;18952;52.516;13.460;2024-01-06T13:34:54;2.00;68.00
32502;DHT22;18952;52.516;13.460;2024-01-06T13:37:22;2.10;68.10
32502;DHT22;18952;52.516;13.460;2024-01-06T13:39:50;1.80;68.00
32502;DHT22;18952;52.516;13.460;2024-01-06T13:42:17;1.90;67.90
32502;DHT22;18952;52.516;13.460;2024-01-06T13:44:47;2.00;67.70
32502;DHT22;18952;52.516;13.460;2024-01-06T13:47:15;2.00;67.70
32502;DHT22;18952;52.516;13.460;2024-01-06T13:49:43;2.00;67.30
32502;DHT22;18952;52.516;13.460;2024-01-06T13:52:10;2.00;67.70
32502;DHT22;18952;52.516;13.460;2024-01-06T13:54:38;2.10;67.10
32502;DHT22;18952;52.516;13.460;2024-01-06T13:57:05;2.00;67.30
32502;DHT22;18952;52.516;13.460;2024-01-06T13:59:36;2.00;67.50
32502;DHT22;18952;52.516;13.460;2024-01-06T14:02:03;2.00;67.50
32502;DHT22;18952;52.516;13.460;2024-01-06T14:04:32;2.00;67.30
32502;DHT22;18952;52.516;13.460;2024-01-06T14:06:59;2.00;67.40
32502;DHT22;18952;52.516;13.460;2024-01-06T14:09:35;2.00;67.30
32502;DHT22;18952;52.516;13.460;2024-01-06T14:12:03;2.00;67.00
32502;DHT22;18952;52.516;13.460;2024-01-06T14:14:31;1.90;67.40
32502;DHT22;18952;52.516;13.460;2024-01-06T14:16:59;1.80;67.20
32502;DHT22;18952;52.516;13.460;2024-01-06T14:19:26;1.90;67.10
32502;DHT22;18952;52.516;13.460;2024-01-06T14:21:53;1.90;67.00
32502;DHT22;18952;52.516;13.460;2024-01-06T14:24:20;1.90;67.10
32502;DHT22;18952;52.516;13.460;2024-01-06T14:26:49;1.90;67.10
32502;DHT22;18952;52.516;13.460;2024-01-06T14:29:16;1.80;67.20
32502;DHT22;18952;52.516;13.460;2024-01-06T14:31:45;1.70;67.30
32502;DHT22;18952;52.516;13.460;2024-01-06T14:34:13;1.80;67.50
32502;DHT22;18952;52.516;13.460;2024-01-06T14:36:41;1.80;67.10
32502;DHT22;18952;52.516;13.460;2024-01-06T14:39:08;1.80;67.30
32502;DHT22;18952;52.516;13.460;2024-01-06T14:41:36;1.80;67.00
32502;DHT22;18952;52.516;13.460;2024-01-06T14:44:05;1.70;67.10
32502;DHT22;18952;52.516;13.460;2024-01-06T14:46:34;1.80;66.90
32502;DHT22;18952;52.516;13.460;2024-01-06T14:49:02;1.90;66.70
32502;DHT22;18952;52.516;13.460;2024-01-06T14:51:31;1.70;67.00
32502;DHT22;18952;52.516;13.460;2024-01-06T14:53:58;1.70;67.10
32502;DHT22;18952;52.516;13.460;2024-01-06T14:56:27;1.80;66.80
32502;DHT22;18952;52.516;13.460;2024-01-06T14:58:54;1.70;66.70
32502;DHT22;18952;52.516;13.460;2024-01-06T15:01:21;1.70;66.70
32502;DHT22;18952;52.516;13.460;2024-01-06T15:03:48;1.70;66.50
32502;DHT22;18952;52.516;13.460;2024-01-06T15:06:16;1.80;66.20
32502;DHT22;18952;52.516;13.460;2024-01-06T15:08:44;1.70;66.80
32502;DHT22;18952;52.516;13.460;2024-01-06T15:11:12;1.80;66.50
32502;DHT22;18952;52.516;13.460;2024-01-06T15:13:40;1.80;66.40
32502;DHT22;18952;52.516;13.460;2024-01-06T15:16:09;1.80;66.20
32502;DHT22;18952;52.516;13.460;2024-01-06T15:18:38;1.90;66.50
32502;DHT22;18952;52.516;13.460;2024-01-06T15:21:05;2.00;66.20
32502;DHT22;18952;52.516;13.460;2024-01-06T15:23:34;1.90;66.20
32502;DHT22;18952;52.516;13.460;2024-01-06T15:26:02;1.90;65.80
32502;DHT22;18952;52.516;13.460;2024-01-06T15:28:30;1.80;66.30
32502;DHT22;18952;52.516;13.460;2024-01-06T15:31:00;1.90;66.40
32502;DHT22;18952;52.516;13.460;2024-01-06T15:33:28;1.90;66.30
32502;DHT22;18952;52.516;13.460;2024-01-06T15:35:56;1.90;66.10
32502;DHT22;18952;52.516;13.460;2024-01-06T15:38:25;1.90;66.10
32502;DHT22;18952;52.516;13.460;2024-01-06T15:40:53;1.90;65.90
32502;DHT22;18952;52.516;13.460;2024-01-06T15:43:20;1.90;66.10
32502;DHT22;18952;52.516;13.460;2024-01-06T15:45:47;2.00;65.90
32502;DHT22;18952;52.516;13.460;2024-01-06T15:48:15;2.00;65.90